sensor_id;sensor_type;location;lat;lon;timestamp;temperature;humidity
19017;DHT22;9641;51.494;6.670;2023-04-16T00:00:50;8.50;99.90
19017;DHT22;9641;51.494;6.670;2023-04-16T00:03:17;8.60;99.90
19017;DHT22;9641;51.494;6.670;2023-04-16T00:05:44;8.60;99.90
19017;DHT22;9641;51.494;6.670;2023-04-16T00:08:12;8.60;99.90
19017;DHT22;9641;51.494;6.670;2023-04-16T00:10:39;8.60;99.90
19017;DHT22;9641;51.494;6.670;2023-04-16T00:13:07;8.50;99.90
19017;DHT22;9641;51.494;6.670;2023-04-16T00:15:34;8.50;99.90
19017;DHT22;9641;51.494;6.670;2023-04-16T00:18:01;8.60;99.90
19017;DHT22;9641;51.494;6.670;2023-04-16T00:20:28;8.60;99.90
19017;DHT22;9641;51.494;6.670;2023-04-16T00:22:55;8.60;99.90
19017;DHT22;9641;51.494;6.670;2023-04-16T00:25:22;8.60;99.90
19017;DHT22;9641;51.494;6.670;2023-04-16T00:27:49;8.60;99.90
19017;DHT22;9641;51.494;6.670;2023-04-16T00:30:17;8.60;99.90
19017;DHT22;9641;51.494;6.670;2023-04-16T00:32:44;8.60;99.90
19017;DHT22;9641;51.494;6.670;2023-04-16T00:35:11;8.60;99.90
19017;DHT22;9641;51.494;6.670;2023-04-16T00:37:38;8.50;99.90
19017;DHT22;9641;51.494;6.670;2023-04-16T00:40:06;8.50;99.90
19017;DHT22;9641;51.494;6.670;2023-04-16T00:42:33;8.50;99.90
19017;DHT22;9641;51.494;6.670;2023-04-16T00:45:01;8.50;99.90
19017;DHT22;9641;51.494;6.670;2023-04-16T00:47:30;8.50;99.90
19017;DHT22;9641;51.494;6.670;2023-04-16T00:49:57;8.50;99.90
19017;DHT22;9641;51.494;6.670;2023-04-16T00:52:24;8.40;99.90
19017;DHT22;9641;51.494;6.670;2023-04-16T00:54:53;8.50;99.90
19017;DHT22;9641;51.494;6.670;2023-04-16T00:57:20;8.40;99.90
19017;DHT22;9641;51.494;6.670;2023-04-16T00:59:48;8.50;99.90
19017;DHT22;9641;51.494;6.670;2023-04-16T01:02:16;8.50;99.90
19017;DHT22;9641;51.494;6.670;2023-04-16T01:04:44;8.60;99.90
19017;DHT22;9641;51.494;6.670;2023-04-16T01:07:11;8.60;99.90
19017;DHT22;9641;51.494;6.670;2023-04-16T01:09:38;8.60;99.90
19017;DHT22;9641;51.494;6.670;2023-04-16T01:12:05;8.50;99.90
19017;DHT22;9641;51.494;6.670;2023-04-16T01:14:32;8.50;99.90
19017;DHT22;9641;51.494;6.670;2023-04-16T01:17:02;8.50;99.90
19017;DHT22;9641;51.494;6.670;2023-04-16T01:19:29;8.50;99.90
19017;DHT22;9641;51.494;6.670;2023-04-16T01:21:58;8.50;99.90
19017;DHT22;9641;51.494;6.670;2023-04-16T01:24:25;8.60;99.90
19017;DHT22;9641;51.494;6.670;2023-04-16T01:26:52;8.60;99.90
19017;DHT22;9641;51.494;6.670;2023-04-16T01:29:19;8.60;99.90
19017;DHT22;9641;51.494;6.670;2023-04-16T01:31:48;8.60;99.90
19017;DHT22;9641;51.494;6.670;2023-04-16T01:34:24;8.60;99.90
19017;DHT22;9641;51.494;6.670;2023-04-16T01:40:39;8.60;99.90
19017;DHT22;9641;51.494;6.670;2023-04-16T01:43:06;8.60;99.90
19017;DHT22;9641;51.494;6.670;2023-04-16T01:45:34;8.50;99.90
19017;DHT22;9641;51.494;6.670;2023-04-16T01:48:02;8.50;99.90
19017;DHT22;9641;51.494;6.670;2023-04-16T01:50:29;8.40;99.90
19017;DHT22;9641;51.494;6.670;2023-04-16T01:52:56;8.50;99.90
19017;DHT22;9641;51.494;6.670;2023-04-16T01:55:23;8.50;99.90
19017;DHT22;9641;51.494;6.670;2023-04-16T01:57:52;8.50;99.90
19017;DHT22;9641;51.494;6.670;2023-04-16T02:00:24;8.50;99.90
19017;DHT22;9641;51.494;6.670;2023-04-16T02:02:52;8.50;99.90
19017;DHT22;9641;51.494;6.670;2023-04-16T02:05:25;8.40;99.90
19017;DHT22;9641;51.494;6.670;2023-04-16T02:07:52;8.40;99.90
19017;DHT22;9641;51.494;6.670;2023-04-16T02:10:19;8.40;99.90
19017;DHT22;9641;51.494;6.670;2023-04-16T02:12:47;8.40;99.90
19017;DHT22;9641;51.494;6.670;2023-04-16T02:15:15;8.40;99.90
19017;DHT22;9641;51.494;6.670;2023-04-16T02:17:43;8.30;99.90
19017;DHT22;9641;51.494;6.670;2023-04-16T02:20:12;8.40;99.90
19017;DHT22;9641;51.494;6.670;2023-04-16T02:22:50;8.40;99.90
19017;DHT22;9641;51.494;6.670;2023-04-16T02:25:20;8.40;99.90
19017;DHT22;9641;51.494;6.670;2023-04-16T02:27:48;8.40;99.90
19017;DHT22;9641;51.494;6.670;2023-04-16T02:30:27;8.40;99.90
19017;DHT22;9641;51.494;6.670;2023-04-16T02:32:56;8.40;99.90
19017;DHT22;9641;51.494;6.670;2023-04-16T02:35:23;8.40;99.90
19017;DHT22;9641;51.494;6.670;2023-04-16T02:37:51;8.40;99.90
19017;DHT22;9641;51.494;6.670;2023-04-16T02:40:18;8.30;99.90
19017;DHT22;9641;51.494;6.670;2023-04-16T02:42:47;8.30;99.90
19017;DHT22;9641;51.494;6.670;2023-04-16T02:45:14;8.40;99.90
19017;DHT22;9641;51.494;6.670;2023-04-16T02:47:43;8.40;99.90
19017;DHT22;9641;51.494;6.670;2023-04-16T02:50:10;8.40;99.90
19017;DHT22;9641;51.494;6.670;2023-04-16T02:52:38;8.40;99.90
19017;DHT22;9641;51.494;6.670;2023-04-16T02:55:06;8.40;99.90
19017;DHT22;9641;51.494;6.670;2023-04-16T02:57:33;8.30;99.90
19017;DHT22;9641;51.494;6.670;2023-04-16T03:00:01;8.30;99.90
19017;DHT22;9641;51.494;6.670;2023-04-16T03:02:30;8.40;99.90
19017;DHT22;9641;51.494;6.670;2023-04-16T03:04:59;8.40;99.90
19017;DHT22;9641;51.494;6.670;2023-04-16T03:07:27;8.40;99.90
19017;DHT22;9641;51.494;6.670;2023-04-16T03:09:55;8.40;99.90
19017;DHT22;9641;51.494;6.670;2023-04-16T03:12:22;8.40;99.90
19017;DHT22;9641;51.494;6.670;2023-04-16T03:14:50;8.40;99.90
19017;DHT22;9641;51.494;6.670;2023-04-16T03:17:18;8.40;99.90
19017;DHT22;9641;51.494;6.670;2023-04-16T03:19:45;8.40;99.90
19017;DHT22;9641;51.494;6.670;2023-04-16T03:22:14;8.40;99.90
19017;DHT22;9641;51.494;6.670;2023-04-16T03:24:42;8.40;99.90
19017;DHT22;9641;51.494;6.670;2023-04-16T03:27:09;8.40;99.90
19017;DHT22;9641;51.494;6.670;2023-04-16T03:29:37;8.40;99.90
19017;DHT22;9641;51.494;6.670;2023-04-16T03:32:06;8.40;99.90
19017;DHT22;9641;51.494;6.670;2023-04-16T03:34:33;8.40;99.90
19017;DHT22;9641;51.494;6.670;2023-04-16T03:37:01;8.40;99.90
19017;DHT22;9641;51.494;6.670;2023-04-16T03:39:31;8.40;99.90
19017;DHT22;9641;51.494;6.670;2023-04-16T03:41:58;8.50;99.90
19017;DHT22;9641;51.494;6.670;2023-04-16T03:44:28;8.50;99.90
19017;DHT22;9641;51.494;6.670;2023-04-16T03:46:55;8.50;99.90
19017;DHT22;9641;51.494;6.670;2023-04-16T03:49:22;8.50;99.90
19017;DHT22;9641;51.494;6.670;2023-04-16T03:51:50;8.50;99.90
19017;DHT22;9641;51.494;6.670;2023-04-16T03:54:19;8.50;99.90
19017;DHT22;9641;51.494;6.670;2023-04-16T03:56:54;8.50;99.90
19017;DHT22;9641;51.494;6.670;2023-04-16T03:59:22;8.50;99.90
19017;DHT22;9641;51.494;6.670;2023-04-16T04:01:49;8.50;99.90
19017;DHT22;9641;51.494;6.670;2023-04-16T04:04:16;8.50;99.90
19017;DHT22;9641;51.494;6.670;2023-04-16T04:06:45;8.50;99.90
19017;DHT22;9641;51.494;6.670;2023-04-16T04:09:12;8.50;99.90
19017;DHT22;9641;51.494;6.670;2023-04-16T04:11:39;8.50;99.90
19017;DHT22;9641;51.494;6.670;2023-04-16T04:14:08;8.50;99.90
19017;DHT22;9641;51.494;6.670;2023-04-16T04:16:35;8.50;99.90
19017;DHT22;9641;51.494;6.670;2023-04-16T04:19:02;8.50;99.90
19017;DHT22;9641;51.494;6.670;2023-04-16T04:21:29;8.50;99.90
19017;DHT22;9641;51.494;6.670;2023-04-16T04:23:57;8.50;99.90
19017;DHT22;9641;51.494;6.670;2023-04-16T04:26:24;8.60;99.90
19017;DHT22;9641;51.494;6.670;2023-04-16T04:28:51;8.60;99.90
19017;DHT22;9641;51.494;6.670;2023-04-16T04:31:20;8.60;99.90
19017;DHT22;9641;51.494;6.670;2023-04-16T04:33:47;8.50;99.90
19017;DHT22;9641;51.494;6.670;2023-04-16T04:36:15;8.60;99.90
19017;DHT22;9641;51.494;6.670;2023-04-16T04:38:42;8.60;99.90
19017;DHT22;9641;51.494;6.670;2023-04-16T04:41:09;8.60;99.90
19017;DHT22;9641;51.494;6.670;2023-04-16T04:43:37;8.60;99.90
19017;DHT22;9641;51.494;6.670;2023-04-16T04:46:05;8.60;99.90
19017;DHT22;9641;51.494;6.670;2023-04-16T04:48:33;8.60;99.90
19017;DHT22;9641;51.494;6.670;2023-04-16T04:51:00;8.60;99.90
19017;DHT22;9641;51.494;6.670;2023-04-16T04:53:28;8.60;99.90
19017;DHT22;9641;51.494;6.670;2023-04-16T04:55:56;8.60;99.90
19017;DHT22;9641;51.494;6.670;2023-04-16T04:58:24;8.60;99.90
19017;DHT22;9641;51.494;6.670;2023-04-16T05:00:51;8.50;99.90
19017;DHT22;9641;51.494;6.670;2023-04-16T05:03:19;8.60;99.90
19017;DHT22;9641;51.494;6.670;2023-04-16T05:05:48;8.60;99.90
19017;DHT22;9641;51.494;6.670;2023-04-16T05:08:15;8.60;99.90
19017;DHT22;9641;51.494;6.670;2023-04-16T05:10:42;8.70;99.90
19017;DHT22;9641;51.494;6.670;2023-04-16T05:13:09;8.60;99.90
19017;DHT22;9641;51.494;6.670;2023-04-16T05:15:36;8.60;99.90
19017;DHT22;9641;51.494;6.670;2023-04-16T05:18:03;8.70;99.90
19017;DHT22;9641;51.494;6.670;2023-04-16T05:20:30;8.70;99.90
19017;DHT22;9641;51.494;6.670;2023-04-16T05:22:58;8.70;99.90
19017;DHT22;9641;51.494;6.670;2023-04-16T05:25:25;8.70;99.90
19017;DHT22;9641;51.494;6.670;2023-04-16T05:27:52;8.60;99.90
19017;DHT22;9641;51.494;6.670;2023-04-16T05:30:19;8.60;99.90
19017;DHT22;9641;51.494;6.670;2023-04-16T05:32:46;8.60;99.90
19017;DHT22;9641;51.494;6.670;2023-04-16T05:35:13;8.60;99.90
19017;DHT22;9641;51.494;6.670;2023-04-16T05:37:40;8.70;99.90
19017;DHT22;9641;51.494;6.670;2023-04-16T05:40:10;8.60;99.90
19017;DHT22;9641;51.494;6.670;2023-04-16T05:42:37;8.70;99.90
19017;DHT22;9641;51.494;6.670;2023-04-16T05:45:05;8.70;99.90
19017;DHT22;9641;51.494;6.670;2023-04-16T05:47:33;8.60;99.90
19017;DHT22;9641;51.494;6.670;2023-04-16T05:50:00;8.70;99.90
19017;DHT22;9641;51.494;6.670;2023-04-16T05:52:27;8.70;99.90
19017;DHT22;9641;51.494;6.670;2023-04-16T05:54:54;8.70;99.90
19017;DHT22;9641;51.494;6.670;2023-04-16T05:57:22;8.70;99.90
19017;DHT22;9641;51.494;6.670;2023-04-16T05:59:49;8.80;99.90
19017;DHT22;9641;51.494;6.670;2023-04-16T06:02:16;8.80;99.90
19017;DHT22;9641;51.494;6.670;2023-04-16T06:04:43;8.90;99.90
19017;DHT22;9641;51.494;6.670;2023-04-16T06:07:10;8.90;99.90
19017;DHT22;9641;51.494;6.670;2023-04-16T06:09:37;8.90;99.90
19017;DHT22;9641;51.494;6.670;2023-04-16T06:12:25;8.90;99.90
19017;DHT22;9641;51.494;6.670;2023-04-16T06:14:52;9.00;99.90
19017;DHT22;9641;51.494;6.670;2023-04-16T06:17:20;9.00;99.90
19017;DHT22;9641;51.494;6.670;2023-04-16T06:19:47;9.00;99.90
19017;DHT22;9641;51.494;6.670;2023-04-16T06:22:15;9.00;99.90
19017;DHT22;9641;51.494;6.670;2023-04-16T06:24:42;9.10;99.90
19017;DHT22;9641;51.494;6.670;2023-04-16T06:27:09;9.10;99.90
19017;DHT22;9641;51.494;6.670;2023-04-16T06:29:38;9.20;99.90
19017;DHT22;9641;51.494;6.670;2023-04-16T06:32:06;9.20;99.90
19017;DHT22;9641;51.494;6.670;2023-04-16T06:34:34;9.10;99.90
19017;DHT22;9641;51.494;6.670;2023-04-16T06:37:01;9.20;99.90
19017;DHT22;9641;51.494;6.670;2023-04-16T06:39:29;9.20;99.90
19017;DHT22;9641;51.494;6.670;2023-04-16T06:41:56;9.30;99.90
19017;DHT22;9641;51.494;6.670;2023-04-16T06:44:23;9.30;99.90
19017;DHT22;9641;51.494;6.670;2023-04-16T06:46:52;9.20;99.90
19017;DHT22;9641;51.494;6.670;2023-04-16T06:49:20;9.20;99.90
19017;DHT22;9641;51.494;6.670;2023-04-16T06:51:47;9.30;99.90
19017;DHT22;9641;51.494;6.670;2023-04-16T06:54:14;9.30;99.90
19017;DHT22;9641;51.494;6.670;2023-04-16T06:56:41;9.20;99.90
19017;DHT22;9641;51.494;6.670;2023-04-16T06:59:08;9.30;99.90
19017;DHT22;9641;51.494;6.670;2023-04-16T07:01:35;9.20;99.90
19017;DHT22;9641;51.494;6.670;2023-04-16T07:04:04;9.30;99.90
19017;DHT22;9641;51.494;6.670;2023-04-16T07:06:31;9.30;99.90
19017;DHT22;9641;51.494;6.670;2023-04-16T07:08:59;9.40;99.90
19017;DHT22;9641;51.494;6.670;2023-04-16T07:11:26;9.40;99.90
19017;DHT22;9641;51.494;6.670;2023-04-16T07:13:54;9.50;99.90
19017;DHT22;9641;51.494;6.670;2023-04-16T07:16:22;9.60;99.90
19017;DHT22;9641;51.494;6.670;2023-04-16T07:18:50;9.60;99.90
19017;DHT22;9641;51.494;6.670;2023-04-16T07:21:19;9.70;99.90
19017;DHT22;9641;51.494;6.670;2023-04-16T07:23:52;9.80;99.90
19017;DHT22;9641;51.494;6.670;2023-04-16T07:26:19;9.90;99.90
19017;DHT22;9641;51.494;6.670;2023-04-16T07:28:46;10.00;99.90
19017;DHT22;9641;51.494;6.670;2023-04-16T07:31:13;10.00;99.90
19017;DHT22;9641;51.494;6.670;2023-04-16T07:33:42;10.00;99.90
19017;DHT22;9641;51.494;6.670;2023-04-16T07:36:10;10.10;99.90
19017;DHT22;9641;51.494;6.670;2023-04-16T07:38:43;10.20;99.90
19017;DHT22;9641;51.494;6.670;2023-04-16T07:41:12;10.30;99.90
19017;DHT22;9641;51.494;6.670;2023-04-16T07:43:40;10.30;99.90
19017;DHT22;9641;51.494;6.670;2023-04-16T07:46:07;10.30;99.90
19017;DHT22;9641;51.494;6.670;2023-04-16T07:48:34;10.40;99.90
19017;DHT22;9641;51.494;6.670;2023-04-16T07:51:01;10.50;99.90
19017;DHT22;9641;51.494;6.670;2023-04-16T07:53:28;10.60;99.90
19017;DHT22;9641;51.494;6.670;2023-04-16T07:55:57;10.60;99.90
19017;DHT22;9641;51.494;6.670;2023-04-16T07:58:28;10.60;99.90
19017;DHT22;9641;51.494;6.670;2023-04-16T08:01:00;10.60;99.90
19017;DHT22;9641;51.494;6.670;2023-04-16T08:03:36;10.70;99.90
19017;DHT22;9641;51.494;6.670;2023-04-16T08:06:04;10.80;99.90
19017;DHT22;9641;51.494;6.670;2023-04-16T08:08:32;10.90;99.90
19017;DHT22;9641;51.494;6.670;2023-04-16T08:11:07;10.90;99.90
19017;DHT22;9641;51.494;6.670;2023-04-16T08:13:35;11.10;99.90
19017;DHT22;9641;51.494;6.670;2023-04-16T08:16:05;11.20;99.90
19017;DHT22;9641;51.494;6.670;2023-04-16T08:18:40;11.30;99.90
19017;DHT22;9641;51.494;6.670;2023-04-16T08:21:08;11.40;99.90
19017;DHT22;9641;51.494;6.670;2023-04-16T08:23:36;11.50;99.90
19017;DHT22;9641;51.494;6.670;2023-04-16T08:26:04;11.20;99.90
19017;DHT22;9641;51.494;6.670;2023-04-16T08:28:32;11.20;99.90
19017;DHT22;9641;51.494;6.670;2023-04-16T08:30:59;11.10;99.90
19017;DHT22;9641;51.494;6.670;2023-04-16T08:33:27;11.10;99.90
19017;DHT22;9641;51.494;6.670;2023-04-16T08:35:54;11.10;99.90
19017;DHT22;9641;51.494;6.670;2023-04-16T08:38:21;11.20;99.90
19017;DHT22;9641;51.494;6.670;2023-04-16T08:40:49;11.60;99.90
19017;DHT22;9641;51.494;6.670;2023-04-16T08:43:18;11.80;99.90
19017;DHT22;9641;51.494;6.670;2023-04-16T08:45:48;12.10;28.90
19017;DHT22;9641;51.494;6.670;2023-04-16T08:48:15;12.30;1.00
19017;DHT22;9641;51.494;6.670;2023-04-16T08:50:45;12.40;1.00
19017;DHT22;9641;51.494;6.670;2023-04-16T08:53:17;12.40;1.00
19017;DHT22;9641;51.494;6.670;2023-04-16T08:55:47;12.30;1.00
19017;DHT22;9641;51.494;6.670;2023-04-16T08:58:23;12.20;1.00
19017;DHT22;9641;51.494;6.670;2023-04-16T09:00:55;12.20;1.00
19017;DHT22;9641;51.494;6.670;2023-04-16T09:03:23;12.00;1.00
19017;DHT22;9641;51.494;6.670;2023-04-16T09:05:50;12.00;1.00
19017;DHT22;9641;51.494;6.670;2023-04-16T09:08:18;11.90;1.00
19017;DHT22;9641;51.494;6.670;2023-04-16T09:10:46;11.90;1.00
19017;DHT22;9641;51.494;6.670;2023-04-16T09:13:17;12.10;1.00
19017;DHT22;9641;51.494;6.670;2023-04-16T09:15:52;12.10;1.00
19017;DHT22;9641;51.494;6.670;2023-04-16T09:18:21;12.30;1.00
19017;DHT22;9641;51.494;6.670;2023-04-16T09:20:50;12.40;1.00
19017;DHT22;9641;51.494;6.670;2023-04-16T09:23:17;12.40;1.00
19017;DHT22;9641;51.494;6.670;2023-04-16T09:25:44;12.50;1.00
19017;DHT22;9641;51.494;6.670;2023-04-16T09:28:11;12.30;1.00
19017;DHT22;9641;51.494;6.670;2023-04-16T09:30:38;12.30;1.00
19017;DHT22;9641;51.494;6.670;2023-04-16T09:33:15;12.40;1.00
19017;DHT22;9641;51.494;6.670;2023-04-16T09:35:47;12.60;1.00
19017;DHT22;9641;51.494;6.670;2023-04-16T09:38:15;12.60;1.00
19017;DHT22;9641;51.494;6.670;2023-04-16T09:40:42;12.50;1.00
19017;DHT22;9641;51.494;6.670;2023-04-16T09:43:13;12.70;1.00
19017;DHT22;9641;51.494;6.670;2023-04-16T09:45:48;12.90;1.00
19017;DHT22;9641;51.494;6.670;2023-04-16T09:48:27;13.00;1.00
19017;DHT22;9641;51.494;6.670;2023-04-16T09:50:55;13.40;1.00
19017;DHT22;9641;51.494;6.670;2023-04-16T09:53:23;13.70;99.90
19017;DHT22;9641;51.494;6.670;2023-04-16T09:55:50;13.70;1.00
19017;DHT22;9641;51.494;6.670;2023-04-16T09:58:18;13.80;1.00
19017;DHT22;9641;51.494;6.670;2023-04-16T10:00:45;13.90;1.00
19017;DHT22;9641;51.494;6.670;2023-04-16T10:03:12;13.80;1.00
19017;DHT22;9641;51.494;6.670;2023-04-16T10:05:41;13.70;1.00
19017;DHT22;9641;51.494;6.670;2023-04-16T10:08:12;13.80;99.90
19017;DHT22;9641;51.494;6.670;2023-04-16T10:10:52;14.00;1.00
19017;DHT22;9641;51.494;6.670;2023-04-16T10:13:23;13.80;33.00
19017;DHT22;9641;51.494;6.670;2023-04-16T10:15:56;13.90;1.00
19017;DHT22;9641;51.494;6.670;2023-04-16T10:18:23;14.10;99.90
19017;DHT22;9641;51.494;6.670;2023-04-16T10:20:52;14.20;99.90
19017;DHT22;9641;51.494;6.670;2023-04-16T10:23:20;14.10;99.90
19017;DHT22;9641;51.494;6.670;2023-04-16T10:25:48;14.30;99.90
19017;DHT22;9641;51.494;6.670;2023-04-16T10:28:15;14.30;99.90
19017;DHT22;9641;51.494;6.670;2023-04-16T10:30:44;14.40;1.00
19017;DHT22;9641;51.494;6.670;2023-04-16T10:33:19;14.60;1.00
19017;DHT22;9641;51.494;6.670;2023-04-16T10:35:47;14.70;1.00
19017;DHT22;9641;51.494;6.670;2023-04-16T10:38:23;15.40;99.90
19017;DHT22;9641;51.494;6.670;2023-04-16T10:40:57;15.50;1.00
19017;DHT22;9641;51.494;6.670;2023-04-16T10:43:27;15.10;1.00
19017;DHT22;9641;51.494;6.670;2023-04-16T10:45:54;14.90;1.00
19017;DHT22;9641;51.494;6.670;2023-04-16T10:48:23;15.10;50.40
19017;DHT22;9641;51.494;6.670;2023-04-16T10:50:54;15.60;1.00
19017;DHT22;9641;51.494;6.670;2023-04-16T10:53:25;15.80;99.90
19017;DHT22;9641;51.494;6.670;2023-04-16T10:55:57;15.90;99.90
19017;DHT22;9641;51.494;6.670;2023-04-16T10:58:27;15.70;99.90
19017;DHT22;9641;51.494;6.670;2023-04-16T11:00:54;15.70;99.90
19017;DHT22;9641;51.494;6.670;2023-04-16T11:03:29;15.80;1.00
19017;DHT22;9641;51.494;6.670;2023-04-16T11:06:09;15.80;1.00
19017;DHT22;9641;51.494;6.670;2023-04-16T11:08:39;15.50;1.00
19017;DHT22;9641;51.494;6.670;2023-04-16T11:11:09;15.40;1.00
19017;DHT22;9641;51.494;6.670;2023-04-16T11:13:36;16.10;1.00
19017;DHT22;9641;51.494;6.670;2023-04-16T11:16:04;16.60;1.00
19017;DHT22;9641;51.494;6.670;2023-04-16T11:18:32;16.50;1.00
19017;DHT22;9641;51.494;6.670;2023-04-16T11:21:00;16.30;1.00
19017;DHT22;9641;51.494;6.670;2023-04-16T11:23:28;16.00;1.00
19017;DHT22;9641;51.494;6.670;2023-04-16T11:25:56;16.00;1.00
19017;DHT22;9641;51.494;6.670;2023-04-16T11:28:34;16.30;1.00
19017;DHT22;9641;51.494;6.670;2023-04-16T11:31:12;16.40;1.00
19017;DHT22;9641;51.494;6.670;2023-04-16T11:33:53;17.00;1.00
19017;DHT22;9641;51.494;6.670;2023-04-16T11:36:41;17.70;1.00
19017;DHT22;9641;51.494;6.670;2023-04-16T11:39:13;17.80;1.00
19017;DHT22;9641;51.494;6.670;2023-04-16T11:41:46;17.20;1.00
19017;DHT22;9641;51.494;6.670;2023-04-16T11:44:20;17.00;1.00
19017;DHT22;9641;51.494;6.670;2023-04-16T11:46:52;17.00;1.00
19017;DHT22;9641;51.494;6.670;2023-04-16T11:49:30;16.90;1.00
19017;DHT22;9641;51.494;6.670;2023-04-16T11:55:16;16.10;1.00
19017;DHT22;9641;51.494;6.670;2023-04-16T11:58:11;16.10;1.00
19017;DHT22;9641;51.494;6.670;2023-04-16T12:01:01;16.10;1.00
19017;DHT22;9641;51.494;6.670;2023-04-16T12:03:40;15.80;1.00
19017;DHT22;9641;51.494;6.670;2023-04-16T12:06:21;16.00;1.00
19017;DHT22;9641;51.494;6.670;2023-04-16T12:09:23;15.70;1.00
19017;DHT22;9641;51.494;6.670;2023-04-16T12:11:52;15.50;1.00
19017;DHT22;9641;51.494;6.670;2023-04-16T12:14:21;15.50;1.00
19017;DHT22;9641;51.494;6.670;2023-04-16T12:16:51;15.60;1.00
19017;DHT22;9641;51.494;6.670;2023-04-16T12:19:18;15.70;1.00
19017;DHT22;9641;51.494;6.670;2023-04-16T12:21:47;16.20;1.00
19017;DHT22;9641;51.494;6.670;2023-04-16T12:24:15;17.40;1.00
19017;DHT22;9641;51.494;6.670;2023-04-16T12:26:46;19.90;1.00
19017;DHT22;9641;51.494;6.670;2023-04-16T12:29:18;21.50;1.00
19017;DHT22;9641;51.494;6.670;2023-04-16T12:31:47;21.60;1.00
19017;DHT22;9641;51.494;6.670;2023-04-16T12:34:14;20.80;1.00
19017;DHT22;9641;51.494;6.670;2023-04-16T12:36:42;20.20;1.00
19017;DHT22;9641;51.494;6.670;2023-04-16T12:39:10;19.90;1.00
19017;DHT22;9641;51.494;6.670;2023-04-16T12:41:38;19.10;99.90
19017;DHT22;9641;51.494;6.670;2023-04-16T12:44:06;17.90;99.90
19017;DHT22;9641;51.494;6.670;2023-04-16T12:46:37;17.50;99.90
19017;DHT22;9641;51.494;6.670;2023-04-16T12:49:06;17.50;99.90
19017;DHT22;9641;51.494;6.670;2023-04-16T12:51:33;17.10;99.90
19017;DHT22;9641;51.494;6.670;2023-04-16T12:54:01;17.00;1.00
19017;DHT22;9641;51.494;6.670;2023-04-16T12:56:29;16.80;1.00
19017;DHT22;9641;51.494;6.670;2023-04-16T12:58:56;16.40;1.00
19017;DHT22;9641;51.494;6.670;2023-04-16T13:01:23;16.30;1.00
19017;DHT22;9641;51.494;6.670;2023-04-16T13:03:50;16.30;1.00
19017;DHT22;9641;51.494;6.670;2023-04-16T13:06:19;16.30;1.00
19017;DHT22;9641;51.494;6.670;2023-04-16T13:08:46;16.40;1.00
19017;DHT22;9641;51.494;6.670;2023-04-16T13:11:13;16.20;1.00
19017;DHT22;9641;51.494;6.670;2023-04-16T13:13:40;16.00;1.00
19017;DHT22;9641;51.494;6.670;2023-04-16T13:16:07;15.80;1.00
19017;DHT22;9641;51.494;6.670;2023-04-16T13:18:35;15.60;1.00
19017;DHT22;9641;51.494;6.670;2023-04-16T13:21:03;15.40;1.00
19017;DHT22;9641;51.494;6.670;2023-04-16T13:23:31;15.40;1.00
19017;DHT22;9641;51.494;6.670;2023-04-16T13:25:58;15.40;1.00
19017;DHT22;9641;51.494;6.670;2023-04-16T13:28:25;15.60;1.00
19017;DHT22;9641;51.494;6.670;2023-04-16T13:30:52;15.80;1.00
19017;DHT22;9641;51.494;6.670;2023-04-16T13:33:20;15.70;1.00
19017;DHT22;9641;51.494;6.670;2023-04-16T13:35:47;15.90;1.00
19017;DHT22;9641;51.494;6.670;2023-04-16T13:38:14;16.00;1.00
19017;DHT22;9641;51.494;6.670;2023-04-16T13:40:50;16.10;1.00
19017;DHT22;9641;51.494;6.670;2023-04-16T13:43:17;16.10;1.00
19017;DHT22;9641;51.494;6.670;2023-04-16T13:45:52;16.40;1.00
19017;DHT22;9641;51.494;6.670;2023-04-16T13:48:19;16.60;1.00
19017;DHT22;9641;51.494;6.670;2023-04-16T13:50:46;16.80;1.00
19017;DHT22;9641;51.494;6.670;2023-04-16T13:53:13;16.80;1.00
19017;DHT22;9641;51.494;6.670;2023-04-16T13:55:43;16.60;1.00
19017;DHT22;9641;51.494;6.670;2023-04-16T13:58:15;16.50;1.00
19017;DHT22;9641;51.494;6.670;2023-04-16T14:00:52;16.60;1.00
19017;DHT22;9641;51.494;6.670;2023-04-16T14:03:19;16.80;1.00
19017;DHT22;9641;51.494;6.670;2023-04-16T14:05:46;16.90;1.00
19017;DHT22;9641;51.494;6.670;2023-04-16T14:08:15;16.90;1.00
19017;DHT22;9641;51.494;6.670;2023-04-16T14:10:42;17.10;1.00
19017;DHT22;9641;51.494;6.670;2023-04-16T14:13:09;17.10;1.00
19017;DHT22;9641;51.494;6.670;2023-04-16T14:15:38;16.90;1.00
19017;DHT22;9641;51.494;6.670;2023-04-16T14:18:05;17.00;1.00
19017;DHT22;9641;51.494;6.670;2023-04-16T14:20:32;16.90;1.00
19017;DHT22;9641;51.494;6.670;2023-04-16T14:23:00;16.80;1.00
19017;DHT22;9641;51.494;6.670;2023-04-16T14:25:28;16.50;1.00
19017;DHT22;9641;51.494;6.670;2023-04-16T14:27:57;16.30;1.00
19017;DHT22;9641;51.494;6.670;2023-04-16T14:30:26;16.10;1.00
19017;DHT22;9641;51.494;6.670;2023-04-16T14:33:20;16.10;1.00
19017;DHT22;9641;51.494;6.670;2023-04-16T14:36:09;16.10;1.00
19017;DHT22;9641;51.494;6.670;2023-04-16T14:38:37;16.20;1.00
19017;DHT22;9641;51.494;6.670;2023-04-16T14:41:16;17.90;1.00
19017;DHT22;9641;51.494;6.670;2023-04-16T14:43:46;19.10;1.00
19017;DHT22;9641;51.494;6.670;2023-04-16T14:46:13;19.60;1.00
19017;DHT22;9641;51.494;6.670;2023-04-16T14:48:43;18.90;1.00
19017;DHT22;9641;51.494;6.670;2023-04-16T14:51:12;18.30;1.00
19017;DHT22;9641;51.494;6.670;2023-04-16T14:53:42;17.60;1.00
19017;DHT22;9641;51.494;6.670;2023-04-16T14:56:25;17.00;1.00
19017;DHT22;9641;51.494;6.670;2023-04-16T14:58:54;16.50;1.00
19017;DHT22;9641;51.494;6.670;2023-04-16T15:01:22;16.10;1.00
19017;DHT22;9641;51.494;6.670;2023-04-16T15:03:51;16.00;1.00
19017;DHT22;9641;51.494;6.670;2023-04-16T15:06:21;16.20;1.00
19017;DHT22;9641;51.494;6.670;2023-04-16T15:08:48;16.50;1.00
19017;DHT22;9641;51.494;6.670;2023-04-16T15:11:15;16.40;1.00
19017;DHT22;9641;51.494;6.670;2023-04-16T15:13:42;16.30;1.00
19017;DHT22;9641;51.494;6.670;2023-04-16T15:16:09;16.10;1.00
19017;DHT22;9641;51.494;6.670;2023-04-16T15:18:36;15.90;1.00
19017;DHT22;9641;51.494;6.670;2023-04-16T15:21:04;15.70;1.00
19017;DHT22;9641;51.494;6.670;2023-04-16T15:23:31;15.80;1.00
19017;DHT22;9641;51.494;6.670;2023-04-16T15:25:58;15.50;1.00
19017;DHT22;9641;51.494;6.670;2023-04-16T15:28:27;15.30;1.00
19017;DHT22;9641;51.494;6.670;2023-04-16T15:30:54;15.30;1.00
19017;DHT22;9641;51.494;6.670;2023-04-16T15:33:21;15.30;1.00
19017;DHT22;9641;51.494;6.670;2023-04-16T15:35:48;15.20;1.00
19017;DHT22;9641;51.494;6.670;2023-04-16T15:38:17;15.00;99.90
19017;DHT22;9641;51.494;6.670;2023-04-16T15:40:45;14.80;1.00
19017;DHT22;9641;51.494;6.670;2023-04-16T15:43:13;14.60;99.90
19017;DHT22;9641;51.494;6.670;2023-04-16T15:45:40;14.50;1.00
19017;DHT22;9641;51.494;6.670;2023-04-16T15:48:07;14.30;78.20
19017;DHT22;9641;51.494;6.670;2023-04-16T15:50:34;14.30;1.00
19017;DHT22;9641;51.494;6.670;2023-04-16T15:53:02;14.10;1.00
19017;DHT22;9641;51.494;6.670;2023-04-16T15:55:56;13.90;99.90
19017;DHT22;9641;51.494;6.670;2023-04-16T15:58:38;13.80;1.00
19017;DHT22;9641;51.494;6.670;2023-04-16T16:01:05;13.80;1.00
19017;DHT22;9641;51.494;6.670;2023-04-16T16:03:33;13.80;99.90
19017;DHT22;9641;51.494;6.670;2023-04-16T16:06:00;13.60;1.00
19017;DHT22;9641;51.494;6.670;2023-04-16T16:08:28;13.40;1.00
19017;DHT22;9641;51.494;6.670;2023-04-16T16:11:00;13.40;99.90
19017;DHT22;9641;51.494;6.670;2023-04-16T16:13:41;13.30;1.00
19017;DHT22;9641;51.494;6.670;2023-04-16T16:16:14;13.20;1.00
19017;DHT22;9641;51.494;6.670;2023-04-16T16:18:41;13.20;1.00